createdAt,value
2017-03-02T18:28:44.495Z,21.1
2017-03-02T18:29:54.225Z,21.09
2017-03-02T18:31:03.155Z,21.18
2017-03-02T18:32:12.055Z,21.25
2017-03-02T18:33:21.002Z,21.3
2017-03-02T18:34:30.693Z,21.23
2017-03-02T18:35:39.624Z,21.24
2017-03-02T18:36:48.542Z,21.2
2017-03-02T18:37:57.431Z,21.21
2017-03-02T18:39:06.322Z,21.18
2017-03-02T18:40:15.216Z,21.2
2017-03-02T18:41:24.122Z,21.31
2017-03-02T18:42:33.033Z,21.25
2017-03-02T18:43:41.935Z,21.3
2017-03-02T18:44:50.850Z,21.3
2017-03-02T18:45:59.787Z,21.33
2017-03-02T18:47:08.723Z,21.27
2017-03-02T18:48:17.635Z,21.33
2017-03-02T18:49:26.554Z,21.38
2017-03-02T18:50:35.456Z,21.34
2017-03-02T18:51:44.351Z,21.3
2017-03-02T18:52:53.245Z,21.38
2017-03-02T18:54:02.140Z,21.24
2017-03-02T18:55:11.026Z,21.27
2017-03-02T18:56:19.931Z,21.25
2017-03-02T18:57:29.234Z,21.38
2017-03-02T18:58:38.164Z,21.42
2017-03-02T18:59:47.057Z,21.39
2017-03-02T19:00:55.943Z,21.54
2017-03-02T19:02:05.276Z,21.55
2017-03-02T19:03:14.901Z,21.5
2017-03-02T19:04:24.027Z,21.48
2017-03-02T19:05:33.117Z,21.55
2017-03-02T19:06:41.999Z,21.43
2017-03-02T19:07:51.071Z,21.52
2017-03-02T19:09:00.154Z,21.46
2017-03-02T19:10:09.243Z,21.55
2017-03-02T19:11:18.255Z,21.49
2017-03-02T19:12:27.161Z,21.6
2017-03-02T19:13:36.052Z,21.64
2017-03-02T19:14:44.944Z,21.64
2017-03-02T19:15:53.928Z,21.79
2017-03-02T19:17:03.360Z,21.73
2017-03-02T19:18:12.262Z,21.76
2017-03-02T19:19:21.169Z,21.67
2017-03-02T19:20:30.122Z,21.82
2017-03-02T19:21:39.626Z,21.68
2017-03-02T19:22:49.184Z,21.67
2017-03-02T19:23:58.339Z,21.82
2017-03-02T19:25:07.710Z,21.76
2017-03-02T19:26:17.729Z,21.78
2017-03-02T19:27:27.048Z,21.82
2017-03-02T19:28:35.968Z,21.8
2017-03-02T19:29:45.512Z,21.75
2017-03-02T19:30:54.755Z,21.86
2017-03-02T19:32:05.731Z,21.82
2017-03-02T19:33:15.735Z,21.9
2017-03-02T19:34:24.614Z,21.9
2017-03-02T19:35:33.598Z,21.98
2017-03-02T19:36:42.791Z,21.9
2017-03-02T19:37:51.803Z,21.96
2017-03-02T19:39:00.723Z,21.92
2017-03-02T19:40:10.351Z,21.89
2017-03-02T19:41:19.316Z,21.94
2017-03-02T19:42:29.951Z,21.98
2017-03-02T19:43:38.845Z,22.01
2017-03-02T19:44:48.554Z,22.05
2017-03-02T19:45:57.816Z,22.01
2017-03-02T19:47:06.901Z,21.98
2017-03-02T19:48:16.596Z,22.05
2017-03-02T19:49:25.953Z,22.02
2017-03-02T19:50:35.132Z,22.01
2017-03-02T19:51:44.216Z,21.99
2017-03-02T19:52:53.511Z,21.98
2017-03-02T19:54:03.407Z,22.01
2017-03-02T19:55:12.367Z,21.95
2017-03-02T19:56:21.380Z,22.06
2017-03-02T19:57:30.758Z,22.04
2017-03-02T19:58:39.777Z,22.13
2017-03-02T19:59:48.904Z,22.17
2017-03-02T20:00:58.085Z,22.11
2017-03-02T20:02:07.190Z,22.26
2017-03-02T20:03:16.598Z,22.19
2017-03-02T20:04:25.718Z,22.21
2017-03-02T20:06:04.675Z,22.32
2017-03-02T20:07:13.806Z,22.29
2017-03-02T20:08:22.835Z,22.34
2017-03-02T20:09:32.080Z,22.31
2017-03-02T20:10:41.576Z,22.38
2017-03-02T20:11:50.639Z,22.34
2017-03-02T20:13:00.145Z,22.32
2017-03-02T20:14:09.127Z,22.29
2017-03-02T20:15:18.536Z,22.26
2017-03-02T20:16:27.924Z,22.32
2017-03-02T20:17:37.016Z,22.27
2017-03-02T20:18:46.065Z,22.34
2017-03-02T20:19:56.051Z,22.32
2017-03-02T20:21:04.987Z,22.39
2017-03-02T20:22:14.444Z,22.35
2017-03-02T20:23:23.571Z,22.35
2017-03-02T20:24:32.603Z,22.43
2017-03-02T20:25:41.640Z,22.42
2017-03-02T20:26:50.573Z,22.45
2017-03-02T20:27:59.496Z,22.53
2017-03-02T20:29:08.400Z,22.54
2017-03-02T20:30:17.287Z,22.53
2017-03-02T20:31:26.518Z,22.49
2017-03-02T20:32:35.666Z,22.51
2017-03-02T20:33:45.111Z,22.58
2017-03-02T20:34:54.085Z,22.61
2017-03-02T20:36:03.636Z,22.57
2017-03-02T20:37:12.530Z,22.56
2017-03-02T20:38:21.420Z,22.61
2017-03-02T20:39:30.319Z,22.6
2017-03-02T20:40:39.637Z,22.6
2017-03-02T20:41:48.539Z,22.57
2017-03-02T20:42:57.437Z,22.54
2017-03-02T20:44:06.331Z,22.61
2017-03-02T20:45:15.257Z,22.71
2017-03-02T20:46:24.160Z,22.68
2017-03-02T20:47:33.099Z,22.61
2017-03-02T20:48:42.095Z,22.73
2017-03-02T20:49:51.111Z,22.71
2017-03-02T20:51:00.235Z,22.69
2017-03-02T20:52:09.938Z,22.71
2017-03-02T20:53:19.702Z,22.69
2017-03-02T20:54:29.513Z,22.6
2017-03-02T20:55:39.221Z,22.6
2017-03-02T20:56:48.691Z,22.63
2017-03-02T20:57:58.522Z,22.72
2017-03-02T20:59:08.246Z,22.68
2017-03-02T21:00:17.913Z,22.71
2017-03-02T21:01:27.566Z,22.75
2017-03-02T21:02:36.724Z,22.73
2017-03-02T21:03:46.429Z,22.91
2017-03-02T21:04:55.601Z,22.82
2017-03-02T21:06:05.137Z,22.82
2017-03-02T21:07:15.794Z,22.87
2017-03-02T21:08:25.304Z,22.94
2017-03-02T21:09:34.699Z,22.87
2017-03-02T21:10:44.341Z,22.88
2017-03-02T21:11:53.526Z,22.87
2017-03-02T21:13:02.589Z,22.86
2017-03-02T21:14:11.615Z,22.83
2017-03-02T21:15:20.642Z,22.87
2017-03-02T21:16:29.982Z,22.88
2017-03-02T21:17:38.935Z,22.79
2017-03-02T21:18:49.208Z,22.87
2017-03-02T21:19:58.484Z,22.83
2017-03-02T21:21:07.541Z,22.91
2017-03-02T21:22:16.441Z,22.86
2017-03-02T21:23:25.335Z,22.91
2017-03-02T21:24:34.225Z,22.9
2017-03-02T21:25:43.106Z,22.91
2017-03-02T21:26:52.009Z,23.01
2017-03-02T21:28:00.935Z,23
2017-03-02T21:29:09.854Z,22.94
2017-03-02T21:30:18.973Z,22.98
2017-03-02T21:31:27.850Z,22.98
2017-03-02T21:32:36.741Z,22.96
2017-03-02T21:33:45.630Z,23.03
2017-03-02T21:34:54.527Z,22.96
2017-03-02T21:36:03.417Z,23
2017-03-02T21:37:12.709Z,23.01
2017-03-02T21:38:21.623Z,23.03
2017-03-02T21:39:30.515Z,22.93
2017-03-02T21:40:39.401Z,22.98
2017-03-02T21:41:48.298Z,22.96
2017-03-02T21:42:57.216Z,22.98
2017-03-02T21:44:06.120Z,22.87
2017-03-02T21:45:15.034Z,22.83
2017-03-02T21:46:23.947Z,22.81
2017-03-02T21:47:32.858Z,22.53
2017-03-02T21:48:41.763Z,22.35
2017-03-02T21:49:50.664Z,22.05
2017-03-02T21:50:59.584Z,22.04
2017-03-02T21:52:08.475Z,21.83
2017-03-02T21:53:17.397Z,21.76
2017-03-02T21:54:26.679Z,21.63
2017-03-02T21:55:35.582Z,21.6
2017-03-02T21:56:44.473Z,21.5
2017-03-02T21:57:53.366Z,21.54
2017-03-02T21:59:02.273Z,21.43
2017-03-02T22:00:11.168Z,21.34
2017-03-02T22:01:20.069Z,21.15
2017-03-02T22:02:28.979Z,21.15
2017-03-02T22:03:37.901Z,21.03
2017-03-02T22:04:46.783Z,20.91
2017-03-02T22:05:55.681Z,20.94
2017-03-02T22:07:04.580Z,20.83
2017-03-02T22:08:13.507Z,20.73
2017-03-02T22:09:22.390Z,20.68
2017-03-02T22:10:31.286Z,20.34
2017-03-02T22:11:40.187Z,20.34
2017-03-02T22:12:49.081Z,20.35
2017-03-02T22:13:57.971Z,20.32
2017-03-02T22:15:06.902Z,20.31
2017-03-02T22:16:15.803Z,20.17
2017-03-02T22:17:24.707Z,20.01
2017-03-02T22:18:33.617Z,20.1
2017-03-02T22:19:42.525Z,19.88
2017-03-02T22:20:51.418Z,19.9
2017-03-02T22:22:00.327Z,19.85
2017-03-02T22:23:09.218Z,19.72
2017-03-02T22:24:18.516Z,19.88
2017-03-02T22:25:27.422Z,19.65
2017-03-02T22:26:36.320Z,19.64
2017-03-02T22:27:45.609Z,19.72
2017-03-02T22:28:54.500Z,19.53
2017-03-02T22:30:03.810Z,19.42
2017-03-02T22:31:12.741Z,19.3
2017-03-02T22:32:21.639Z,19.17
2017-03-02T22:33:30.549Z,19.28
2017-03-02T22:34:39.444Z,19.2
2017-03-02T22:35:48.349Z,19.18
2017-03-02T22:36:57.281Z,19.12
2017-03-02T22:38:06.182Z,19.1
2017-03-02T22:39:15.090Z,18.97
2017-03-02T22:40:23.981Z,18.99
2017-03-02T22:41:32.895Z,18.86
2017-03-02T22:42:41.794Z,18.76
2017-03-02T22:43:50.694Z,18.76
2017-03-02T22:44:59.598Z,18.77
2017-03-02T22:46:08.905Z,18.69
2017-03-02T22:47:17.791Z,18.77
2017-03-02T22:48:26.697Z,18.68
2017-03-02T22:49:35.594Z,18.64
2017-03-02T22:50:44.492Z,18.54
2017-03-02T22:51:53.384Z,18.65
2017-03-02T22:53:02.277Z,18.49
2017-03-02T22:54:11.170Z,18.44
2017-03-02T22:55:20.096Z,18.42
2017-03-02T22:56:28.997Z,18.4
2017-03-02T22:57:37.887Z,18.36
2017-03-02T22:58:46.777Z,18.43
2017-03-02T22:59:55.704Z,18.39
2017-03-02T23:01:04.643Z,18.24
2017-03-02T23:02:13.540Z,18.19
2017-03-02T23:03:22.430Z,18.22
2017-03-02T23:04:31.314Z,18.17
2017-03-02T23:05:40.202Z,18.25
2017-03-02T23:06:49.096Z,18.24
2017-03-02T23:07:58.379Z,18.16
2017-03-02T23:09:07.276Z,18.04
2017-03-02T23:10:16.166Z,18.04
2017-03-02T23:11:25.052Z,17.95
2017-03-02T23:12:33.933Z,17.82
2017-03-02T23:13:43.238Z,17.95
2017-03-02T23:14:52.134Z,17.79
2017-03-02T23:16:01.016Z,17.84
2017-03-02T23:17:09.957Z,17.8
2017-03-02T23:18:19.255Z,17.89
2017-03-02T23:19:28.153Z,17.79
2017-03-02T23:20:37.040Z,17.76
2017-03-02T23:21:45.946Z,17.71
2017-03-02T23:22:54.846Z,17.82
2017-03-02T23:24:03.776Z,17.58
2017-03-02T23:25:12.666Z,17.54
2017-03-02T23:26:21.573Z,17.64
2017-03-02T23:27:30.458Z,17.58
2017-03-02T23:28:39.341Z,17.62
2017-03-02T23:29:48.235Z,17.64
2017-03-02T23:30:57.116Z,17.45
2017-03-02T23:32:06.013Z,17.47
2017-03-02T23:33:14.891Z,17.33
2017-03-02T23:34:23.806Z,17.3
2017-03-02T23:35:33.137Z,17.38
2017-03-02T23:36:42.433Z,17.26
2017-03-02T23:37:51.348Z,17.29
2017-03-02T23:39:00.227Z,17.26
2017-03-02T23:40:09.125Z,17.26
2017-03-02T23:41:18.019Z,17.2
2017-03-02T23:42:27.315Z,17.15
2017-03-02T23:43:36.216Z,17.15
2017-03-02T23:44:45.143Z,17.23
2017-03-02T23:45:54.441Z,17.24
2017-03-02T23:47:04.154Z,17.02
2017-03-02T23:48:13.056Z,17.05
2017-03-02T23:49:21.950Z,17
2017-03-02T23:50:30.864Z,16.98
2017-03-02T23:51:39.759Z,16.95
2017-03-02T23:52:48.638Z,16.96
2017-03-02T23:53:57.529Z,16.95
2017-03-02T23:55:06.425Z,16.89
2017-03-02T23:56:15.327Z,16.92
2017-03-02T23:57:24.211Z,16.87
2017-03-02T23:58:33.100Z,16.77
2017-03-02T23:59:41.978Z,16.82
